sensor_id;sensor_type;location;lat;lon;timestamp;temperature;humidity
23507;DHT22;11930;53.076;18.250;2022-10-31T00:01:38;9.70;99.90
23507;DHT22;11930;53.076;18.250;2022-10-31T00:04:05;9.80;99.90
23507;DHT22;11930;53.076;18.250;2022-10-31T00:06:32;9.70;99.90
23507;DHT22;11930;53.076;18.250;2022-10-31T00:09:02;9.70;99.90
23507;DHT22;11930;53.076;18.250;2022-10-31T00:11:29;9.70;99.90
23507;DHT22;11930;53.076;18.250;2022-10-31T00:13:57;9.70;99.90
23507;DHT22;11930;53.076;18.250;2022-10-31T00:16:24;9.70;99.90
23507;DHT22;11930;53.076;18.250;2022-10-31T00:18:51;9.70;99.90
23507;DHT22;11930;53.076;18.250;2022-10-31T00:21:18;9.60;99.90
23507;DHT22;11930;53.076;18.250;2022-10-31T00:23:44;9.60;99.90
23507;DHT22;11930;53.076;18.250;2022-10-31T00:26:10;9.60;99.90
23507;DHT22;11930;53.076;18.250;2022-10-31T00:28:36;9.60;99.90
23507;DHT22;11930;53.076;18.250;2022-10-31T00:31:05;9.70;99.90
23507;DHT22;11930;53.076;18.250;2022-10-31T00:33:34;9.70;99.90
23507;DHT22;11930;53.076;18.250;2022-10-31T00:36:03;9.70;99.90
23507;DHT22;11930;53.076;18.250;2022-10-31T00:38:29;9.70;99.90
23507;DHT22;11930;53.076;18.250;2022-10-31T00:40:55;9.70;99.90
23507;DHT22;11930;53.076;18.250;2022-10-31T00:43:22;9.80;99.90
23507;DHT22;11930;53.076;18.250;2022-10-31T00:45:47;9.80;99.90
23507;DHT22;11930;53.076;18.250;2022-10-31T00:48:14;9.80;99.90
23507;DHT22;11930;53.076;18.250;2022-10-31T00:50:40;9.70;99.90
23507;DHT22;11930;53.076;18.250;2022-10-31T00:53:06;9.70;99.90
23507;DHT22;11930;53.076;18.250;2022-10-31T00:55:33;9.70;99.90
23507;DHT22;11930;53.076;18.250;2022-10-31T00:57:59;9.60;99.90
23507;DHT22;11930;53.076;18.250;2022-10-31T01:00:25;9.60;99.90
23507;DHT22;11930;53.076;18.250;2022-10-31T01:02:51;9.60;99.90
23507;DHT22;11930;53.076;18.250;2022-10-31T01:05:18;9.60;99.90
23507;DHT22;11930;53.076;18.250;2022-10-31T01:07:45;9.50;99.90
23507;DHT22;11930;53.076;18.250;2022-10-31T01:10:12;9.60;99.90
23507;DHT22;11930;53.076;18.250;2022-10-31T01:12:40;9.50;99.90
23507;DHT22;11930;53.076;18.250;2022-10-31T01:15:08;9.50;99.90
23507;DHT22;11930;53.076;18.250;2022-10-31T01:17:34;9.60;99.90
23507;DHT22;11930;53.076;18.250;2022-10-31T01:20:01;9.60;99.90
23507;DHT22;11930;53.076;18.250;2022-10-31T01:22:27;9.60;99.90
23507;DHT22;11930;53.076;18.250;2022-10-31T01:24:53;9.60;99.90
23507;DHT22;11930;53.076;18.250;2022-10-31T01:27:19;9.50;99.90
23507;DHT22;11930;53.076;18.250;2022-10-31T01:29:45;9.60;99.90
23507;DHT22;11930;53.076;18.250;2022-10-31T01:32:11;9.60;99.90
23507;DHT22;11930;53.076;18.250;2022-10-31T01:34:37;9.60;99.90
23507;DHT22;11930;53.076;18.250;2022-10-31T01:37:03;9.50;99.90
23507;DHT22;11930;53.076;18.250;2022-10-31T01:39:29;9.50;99.90
23507;DHT22;11930;53.076;18.250;2022-10-31T01:41:55;9.60;99.90
23507;DHT22;11930;53.076;18.250;2022-10-31T01:46:57;9.60;99.90
23507;DHT22;11930;53.076;18.250;2022-10-31T01:49:44;9.60;99.90
23507;DHT22;11930;53.076;18.250;2022-10-31T01:57:22;9.50;99.90
23507;DHT22;11930;53.076;18.250;2022-10-31T01:59:54;9.50;99.90
23507;DHT22;11930;53.076;18.250;2022-10-31T02:02:23;9.50;99.90
23507;DHT22;11930;53.076;18.250;2022-10-31T02:04:49;9.50;99.90
23507;DHT22;11930;53.076;18.250;2022-10-31T02:07:27;9.50;99.90
23507;DHT22;11930;53.076;18.250;2022-10-31T02:09:58;9.50;99.90
23507;DHT22;11930;53.076;18.250;2022-10-31T02:12:25;9.50;99.90
23507;DHT22;11930;53.076;18.250;2022-10-31T02:14:59;9.50;99.90
23507;DHT22;11930;53.076;18.250;2022-10-31T02:17:26;9.50;99.90
23507;DHT22;11930;53.076;18.250;2022-10-31T02:20:12;9.40;99.90
23507;DHT22;11930;53.076;18.250;2022-10-31T02:34:19;9.40;99.90
23507;DHT22;11930;53.076;18.250;2022-10-31T02:39:47;9.40;99.90
23507;DHT22;11930;53.076;18.250;2022-10-31T02:48:14;9.50;99.90
23507;DHT22;11930;53.076;18.250;2022-10-31T02:50:59;9.50;99.90
23507;DHT22;11930;53.076;18.250;2022-10-31T02:53:26;9.50;99.90
23507;DHT22;11930;53.076;18.250;2022-10-31T02:56:08;9.50;99.90
23507;DHT22;11930;53.076;18.250;2022-10-31T02:58:42;9.50;99.90
23507;DHT22;11930;53.076;18.250;2022-10-31T03:01:20;9.60;99.90
23507;DHT22;11930;53.076;18.250;2022-10-31T03:10:03;9.50;99.90
23507;DHT22;11930;53.076;18.250;2022-10-31T03:17:56;9.60;99.90
23507;DHT22;11930;53.076;18.250;2022-10-31T03:20:39;9.60;99.90
23507;DHT22;11930;53.076;18.250;2022-10-31T03:23:12;9.60;99.90
23507;DHT22;11930;53.076;18.250;2022-10-31T03:25:39;9.60;99.90
23507;DHT22;11930;53.076;18.250;2022-10-31T03:28:10;9.60;99.90
23507;DHT22;11930;53.076;18.250;2022-10-31T03:30:39;9.60;99.90
23507;DHT22;11930;53.076;18.250;2022-10-31T03:33:10;9.60;99.90
23507;DHT22;11930;53.076;18.250;2022-10-31T03:35:41;9.60;99.90
23507;DHT22;11930;53.076;18.250;2022-10-31T03:38:09;9.70;99.90
23507;DHT22;11930;53.076;18.250;2022-10-31T03:40:37;9.80;99.90
23507;DHT22;11930;53.076;18.250;2022-10-31T03:43:10;9.80;99.90
23507;DHT22;11930;53.076;18.250;2022-10-31T03:45:41;9.70;99.90
23507;DHT22;11930;53.076;18.250;2022-10-31T03:48:08;9.80;99.90
23507;DHT22;11930;53.076;18.250;2022-10-31T03:53:38;9.70;99.90
23507;DHT22;11930;53.076;18.250;2022-10-31T03:59:00;9.80;99.90
23507;DHT22;11930;53.076;18.250;2022-10-31T04:01:30;9.80;99.90
23507;DHT22;11930;53.076;18.250;2022-10-31T04:03:58;9.80;99.90
23507;DHT22;11930;53.076;18.250;2022-10-31T04:06:24;9.80;99.90
23507;DHT22;11930;53.076;18.250;2022-10-31T04:08:55;9.80;99.90
23507;DHT22;11930;53.076;18.250;2022-10-31T04:11:28;9.80;99.90
23507;DHT22;11930;53.076;18.250;2022-10-31T04:14:15;9.70;99.90
23507;DHT22;11930;53.076;18.250;2022-10-31T04:16:43;9.70;99.90
23507;DHT22;11930;53.076;18.250;2022-10-31T04:19:11;9.70;99.90
23507;DHT22;11930;53.076;18.250;2022-10-31T04:21:37;9.70;99.90
23507;DHT22;11930;53.076;18.250;2022-10-31T04:24:04;9.80;99.90
23507;DHT22;11930;53.076;18.250;2022-10-31T04:26:30;9.70;99.90
23507;DHT22;11930;53.076;18.250;2022-10-31T04:28:57;9.70;99.90
23507;DHT22;11930;53.076;18.250;2022-10-31T04:31:26;9.70;99.90
23507;DHT22;11930;53.076;18.250;2022-10-31T04:33:52;9.80;99.90
23507;DHT22;11930;53.076;18.250;2022-10-31T04:36:19;9.70;99.90
23507;DHT22;11930;53.076;18.250;2022-10-31T04:38:45;9.70;99.90
23507;DHT22;11930;53.076;18.250;2022-10-31T04:41:34;9.70;99.90
23507;DHT22;11930;53.076;18.250;2022-10-31T04:44:01;9.70;99.90
23507;DHT22;11930;53.076;18.250;2022-10-31T04:46:28;9.70;99.90
23507;DHT22;11930;53.076;18.250;2022-10-31T04:48:56;9.70;99.90
23507;DHT22;11930;53.076;18.250;2022-10-31T04:51:23;9.70;99.90
23507;DHT22;11930;53.076;18.250;2022-10-31T04:53:50;9.70;99.90
23507;DHT22;11930;53.076;18.250;2022-10-31T04:56:34;9.70;99.90
23507;DHT22;11930;53.076;18.250;2022-10-31T04:59:06;9.70;99.90
23507;DHT22;11930;53.076;18.250;2022-10-31T05:01:48;9.70;99.90
23507;DHT22;11930;53.076;18.250;2022-10-31T05:04:17;9.70;99.90
23507;DHT22;11930;53.076;18.250;2022-10-31T05:06:43;9.70;99.90
23507;DHT22;11930;53.076;18.250;2022-10-31T05:09:09;9.60;99.90
23507;DHT22;11930;53.076;18.250;2022-10-31T05:11:35;9.60;99.90
23507;DHT22;11930;53.076;18.250;2022-10-31T05:14:15;9.60;99.90
23507;DHT22;11930;53.076;18.250;2022-10-31T05:17:04;9.60;99.90
23507;DHT22;11930;53.076;18.250;2022-10-31T05:19:48;9.60;99.90
23507;DHT22;11930;53.076;18.250;2022-10-31T05:22:44;9.50;99.90
23507;DHT22;11930;53.076;18.250;2022-10-31T05:25:11;9.50;99.90
23507;DHT22;11930;53.076;18.250;2022-10-31T05:27:41;9.50;99.90
23507;DHT22;11930;53.076;18.250;2022-10-31T05:30:10;9.50;99.90
23507;DHT22;11930;53.076;18.250;2022-10-31T05:32:41;9.50;99.90
23507;DHT22;11930;53.076;18.250;2022-10-31T05:35:39;9.50;99.90
23507;DHT22;11930;53.076;18.250;2022-10-31T05:38:24;9.50;99.90
23507;DHT22;11930;53.076;18.250;2022-10-31T05:40:50;9.50;99.90
23507;DHT22;11930;53.076;18.250;2022-10-31T05:43:20;9.40;99.90
23507;DHT22;11930;53.076;18.250;2022-10-31T05:45:46;9.50;99.90
23507;DHT22;11930;53.076;18.250;2022-10-31T05:48:32;9.40;99.90
23507;DHT22;11930;53.076;18.250;2022-10-31T05:51:28;9.40;99.90
23507;DHT22;11930;53.076;18.250;2022-10-31T05:53:54;9.40;99.90
23507;DHT22;11930;53.076;18.250;2022-10-31T05:56:21;9.40;99.90
23507;DHT22;11930;53.076;18.250;2022-10-31T05:58:49;9.50;99.90
23507;DHT22;11930;53.076;18.250;2022-10-31T06:01:15;9.50;99.90
23507;DHT22;11930;53.076;18.250;2022-10-31T06:03:43;9.50;99.90
23507;DHT22;11930;53.076;18.250;2022-10-31T06:06:10;9.50;99.90
23507;DHT22;11930;53.076;18.250;2022-10-31T06:08:40;9.50;99.90
23507;DHT22;11930;53.076;18.250;2022-10-31T06:11:12;9.50;99.90
23507;DHT22;11930;53.076;18.250;2022-10-31T06:13:56;9.60;99.90
23507;DHT22;11930;53.076;18.250;2022-10-31T06:16:26;9.60;99.90
23507;DHT22;11930;53.076;18.250;2022-10-31T06:18:55;9.50;99.90
23507;DHT22;11930;53.076;18.250;2022-10-31T06:21:21;9.60;99.90
23507;DHT22;11930;53.076;18.250;2022-10-31T06:23:50;9.60;99.90
23507;DHT22;11930;53.076;18.250;2022-10-31T06:26:51;9.60;99.90
23507;DHT22;11930;53.076;18.250;2022-10-31T06:29:17;9.60;99.90
23507;DHT22;11930;53.076;18.250;2022-10-31T06:32:04;9.70;99.90
23507;DHT22;11930;53.076;18.250;2022-10-31T06:34:34;9.70;99.90
23507;DHT22;11930;53.076;18.250;2022-10-31T06:37:01;9.60;99.90
23507;DHT22;11930;53.076;18.250;2022-10-31T06:39:28;9.70;99.90
23507;DHT22;11930;53.076;18.250;2022-10-31T06:41:54;9.60;99.90
23507;DHT22;11930;53.076;18.250;2022-10-31T06:44:21;9.60;99.90
23507;DHT22;11930;53.076;18.250;2022-10-31T06:46:50;9.70;99.90
23507;DHT22;11930;53.076;18.250;2022-10-31T06:49:42;9.70;99.90
23507;DHT22;11930;53.076;18.250;2022-10-31T06:52:14;9.70;99.90
23507;DHT22;11930;53.076;18.250;2022-10-31T06:54:40;9.80;99.90
23507;DHT22;11930;53.076;18.250;2022-10-31T06:57:08;9.80;99.90
23507;DHT22;11930;53.076;18.250;2022-10-31T06:59:34;9.80;99.90
23507;DHT22;11930;53.076;18.250;2022-10-31T07:02:24;9.80;99.90
23507;DHT22;11930;53.076;18.250;2022-10-31T07:04:51;9.90;99.90
23507;DHT22;11930;53.076;18.250;2022-10-31T07:07:17;9.90;99.90
23507;DHT22;11930;53.076;18.250;2022-10-31T07:09:45;9.80;99.90
23507;DHT22;11930;53.076;18.250;2022-10-31T07:12:15;9.80;99.90
23507;DHT22;11930;53.076;18.250;2022-10-31T07:14:48;9.80;99.90
23507;DHT22;11930;53.076;18.250;2022-10-31T07:17:14;9.80;99.90
23507;DHT22;11930;53.076;18.250;2022-10-31T07:19:43;9.80;99.90
23507;DHT22;11930;53.076;18.250;2022-10-31T07:22:11;9.90;99.90
23507;DHT22;11930;53.076;18.250;2022-10-31T07:24:39;9.90;99.90
23507;DHT22;11930;53.076;18.250;2022-10-31T07:27:23;10.00;99.90
23507;DHT22;11930;53.076;18.250;2022-10-31T07:29:49;10.10;99.90
23507;DHT22;11930;53.076;18.250;2022-10-31T07:32:16;10.00;99.90
23507;DHT22;11930;53.076;18.250;2022-10-31T07:34:48;10.10;99.90
23507;DHT22;11930;53.076;18.250;2022-10-31T07:37:22;10.10;99.90
23507;DHT22;11930;53.076;18.250;2022-10-31T07:39:48;10.20;99.90
23507;DHT22;11930;53.076;18.250;2022-10-31T07:42:15;10.20;99.90
23507;DHT22;11930;53.076;18.250;2022-10-31T07:44:44;10.10;99.90
23507;DHT22;11930;53.076;18.250;2022-10-31T07:47:29;10.10;99.90
23507;DHT22;11930;53.076;18.250;2022-10-31T07:50:16;10.10;99.90
23507;DHT22;11930;53.076;18.250;2022-10-31T07:53:08;10.10;99.90
23507;DHT22;11930;53.076;18.250;2022-10-31T07:55:58;10.10;99.90
23507;DHT22;11930;53.076;18.250;2022-10-31T07:58:28;10.10;99.90
23507;DHT22;11930;53.076;18.250;2022-10-31T08:00:58;10.20;99.90
23507;DHT22;11930;53.076;18.250;2022-10-31T08:03:33;10.20;99.90
23507;DHT22;11930;53.076;18.250;2022-10-31T08:06:18;10.30;99.90
23507;DHT22;11930;53.076;18.250;2022-10-31T08:08:44;10.30;99.90
23507;DHT22;11930;53.076;18.250;2022-10-31T08:11:10;10.30;99.90
23507;DHT22;11930;53.076;18.250;2022-10-31T08:13:37;10.30;99.90
23507;DHT22;11930;53.076;18.250;2022-10-31T08:16:03;10.30;99.90
23507;DHT22;11930;53.076;18.250;2022-10-31T08:18:33;10.40;99.90
23507;DHT22;11930;53.076;18.250;2022-10-31T08:20:59;10.50;99.90
23507;DHT22;11930;53.076;18.250;2022-10-31T08:23:25;10.50;99.90
23507;DHT22;11930;53.076;18.250;2022-10-31T08:25:53;10.60;99.90
23507;DHT22;11930;53.076;18.250;2022-10-31T08:28:19;10.60;99.90
23507;DHT22;11930;53.076;18.250;2022-10-31T08:30:49;10.70;99.90
23507;DHT22;11930;53.076;18.250;2022-10-31T08:33:38;10.70;99.90
23507;DHT22;11930;53.076;18.250;2022-10-31T08:36:13;10.60;99.90
23507;DHT22;11930;53.076;18.250;2022-10-31T08:38:54;10.70;99.90
23507;DHT22;11930;53.076;18.250;2022-10-31T08:41:20;10.70;99.90
23507;DHT22;11930;53.076;18.250;2022-10-31T08:43:47;10.70;99.90
23507;DHT22;11930;53.076;18.250;2022-10-31T08:46:15;10.70;99.90
23507;DHT22;11930;53.076;18.250;2022-10-31T08:48:43;10.80;99.90
23507;DHT22;11930;53.076;18.250;2022-10-31T08:51:10;10.90;99.90
23507;DHT22;11930;53.076;18.250;2022-10-31T08:53:36;11.10;99.90
23507;DHT22;11930;53.076;18.250;2022-10-31T08:56:29;11.10;99.90
23507;DHT22;11930;53.076;18.250;2022-10-31T08:58:55;11.00;99.90
23507;DHT22;11930;53.076;18.250;2022-10-31T09:01:32;11.00;99.90
23507;DHT22;11930;53.076;18.250;2022-10-31T09:03:58;10.90;99.90
23507;DHT22;11930;53.076;18.250;2022-10-31T09:06:25;10.90;99.90
23507;DHT22;11930;53.076;18.250;2022-10-31T09:08:52;10.90;99.90
23507;DHT22;11930;53.076;18.250;2022-10-31T09:11:19;10.90;99.90
23507;DHT22;11930;53.076;18.250;2022-10-31T09:14:03;11.00;99.90
23507;DHT22;11930;53.076;18.250;2022-10-31T09:16:53;11.20;99.90
23507;DHT22;11930;53.076;18.250;2022-10-31T09:19:23;11.20;99.90
23507;DHT22;11930;53.076;18.250;2022-10-31T09:21:52;11.20;99.90
23507;DHT22;11930;53.076;18.250;2022-10-31T09:24:18;11.20;99.90
23507;DHT22;11930;53.076;18.250;2022-10-31T09:26:45;11.20;99.90
23507;DHT22;11930;53.076;18.250;2022-10-31T09:29:17;11.20;99.90
23507;DHT22;11930;53.076;18.250;2022-10-31T09:31:44;11.20;99.90
23507;DHT22;11930;53.076;18.250;2022-10-31T09:34:24;11.20;99.90
23507;DHT22;11930;53.076;18.250;2022-10-31T09:37:01;11.20;99.90
23507;DHT22;11930;53.076;18.250;2022-10-31T09:39:27;11.20;99.90
23507;DHT22;11930;53.076;18.250;2022-10-31T09:42:14;11.30;99.90
23507;DHT22;11930;53.076;18.250;2022-10-31T09:45:23;11.40;99.90
23507;DHT22;11930;53.076;18.250;2022-10-31T09:51:05;11.50;99.90
23507;DHT22;11930;53.076;18.250;2022-10-31T09:56:38;11.60;99.90
23507;DHT22;11930;53.076;18.250;2022-10-31T09:59:09;11.60;99.90
23507;DHT22;11930;53.076;18.250;2022-10-31T10:16:00;11.70;99.90
23507;DHT22;11930;53.076;18.250;2022-10-31T10:18:59;11.70;99.90
23507;DHT22;11930;53.076;18.250;2022-10-31T10:29:49;11.90;99.90
23507;DHT22;11930;53.076;18.250;2022-10-31T10:32:25;11.90;99.90
23507;DHT22;11930;53.076;18.250;2022-10-31T10:35:08;11.90;99.90
23507;DHT22;11930;53.076;18.250;2022-10-31T10:37:41;12.00;99.90
23507;DHT22;11930;53.076;18.250;2022-10-31T10:40:17;12.00;99.90
23507;DHT22;11930;53.076;18.250;2022-10-31T10:46:16;12.20;99.90
23507;DHT22;11930;53.076;18.250;2022-10-31T10:49:34;12.10;99.90
23507;DHT22;11930;53.076;18.250;2022-10-31T11:00:32;12.20;99.90
23507;DHT22;11930;53.076;18.250;2022-10-31T11:03:00;12.10;99.90
23507;DHT22;11930;53.076;18.250;2022-10-31T11:05:33;12.20;99.90
23507;DHT22;11930;53.076;18.250;2022-10-31T11:08:01;12.20;99.90
23507;DHT22;11930;53.076;18.250;2022-10-31T11:10:27;12.30;99.90
23507;DHT22;11930;53.076;18.250;2022-10-31T11:13:26;12.30;99.90
23507;DHT22;11930;53.076;18.250;2022-10-31T11:18:39;12.30;99.90
23507;DHT22;11930;53.076;18.250;2022-10-31T11:21:28;12.30;99.90
23507;DHT22;11930;53.076;18.250;2022-10-31T11:24:14;12.30;99.90
23507;DHT22;11930;53.076;18.250;2022-10-31T11:26:43;12.20;99.90
23507;DHT22;11930;53.076;18.250;2022-10-31T11:29:35;12.20;99.90
23507;DHT22;11930;53.076;18.250;2022-10-31T11:32:02;12.20;99.90
23507;DHT22;11930;53.076;18.250;2022-10-31T11:34:32;12.20;99.90
23507;DHT22;11930;53.076;18.250;2022-10-31T11:37:12;12.20;99.90
23507;DHT22;11930;53.076;18.250;2022-10-31T11:39:44;12.10;99.90
23507;DHT22;11930;53.076;18.250;2022-10-31T11:42:11;12.10;99.90
23507;DHT22;11930;53.076;18.250;2022-10-31T11:44:42;12.20;99.90
23507;DHT22;11930;53.076;18.250;2022-10-31T11:47:16;12.30;99.90
23507;DHT22;11930;53.076;18.250;2022-10-31T11:49:45;12.40;99.90
23507;DHT22;11930;53.076;18.250;2022-10-31T11:52:20;12.50;99.90
23507;DHT22;11930;53.076;18.250;2022-10-31T11:54:55;12.50;99.90
23507;DHT22;11930;53.076;18.250;2022-10-31T11:57:28;12.50;99.90
23507;DHT22;11930;53.076;18.250;2022-10-31T11:59:56;12.50;99.90
23507;DHT22;11930;53.076;18.250;2022-10-31T12:02:24;12.50;99.90
23507;DHT22;11930;53.076;18.250;2022-10-31T12:05:18;12.50;99.90
23507;DHT22;11930;53.076;18.250;2022-10-31T12:07:46;12.40;99.90
23507;DHT22;11930;53.076;18.250;2022-10-31T12:10:13;12.50;99.90
23507;DHT22;11930;53.076;18.250;2022-10-31T12:12:51;12.50;99.90
23507;DHT22;11930;53.076;18.250;2022-10-31T12:15:32;12.60;99.90
23507;DHT22;11930;53.076;18.250;2022-10-31T12:42:50;12.70;99.90
23507;DHT22;11930;53.076;18.250;2022-10-31T12:58:59;12.70;99.90
23507;DHT22;11930;53.076;18.250;2022-10-31T13:01:35;12.70;99.90
23507;DHT22;11930;53.076;18.250;2022-10-31T13:07:04;12.60;99.90
23507;DHT22;11930;53.076;18.250;2022-10-31T13:09:43;12.60;99.90
23507;DHT22;11930;53.076;18.250;2022-10-31T13:12:14;12.60;99.90
23507;DHT22;11930;53.076;18.250;2022-10-31T13:14:53;12.70;99.90
23507;DHT22;11930;53.076;18.250;2022-10-31T13:20:02;12.60;99.90
23507;DHT22;11930;53.076;18.250;2022-10-31T13:22:31;12.60;99.90
23507;DHT22;11930;53.076;18.250;2022-10-31T13:25:16;12.60;99.90
23507;DHT22;11930;53.076;18.250;2022-10-31T13:27:55;12.60;99.90
23507;DHT22;11930;53.076;18.250;2022-10-31T13:30:24;12.60;99.90
23507;DHT22;11930;53.076;18.250;2022-10-31T13:38:28;12.50;99.90
23507;DHT22;11930;53.076;18.250;2022-10-31T13:46:38;12.40;99.90
23507;DHT22;11930;53.076;18.250;2022-10-31T13:49:21;12.40;99.90
23507;DHT22;11930;53.076;18.250;2022-10-31T13:51:49;12.40;99.90
23507;DHT22;11930;53.076;18.250;2022-10-31T13:54:32;12.40;99.90
23507;DHT22;11930;53.076;18.250;2022-10-31T13:56:58;12.40;99.90
23507;DHT22;11930;53.076;18.250;2022-10-31T13:59:29;12.30;99.90
23507;DHT22;11930;53.076;18.250;2022-10-31T14:02:02;12.30;99.90
23507;DHT22;11930;53.076;18.250;2022-10-31T14:04:46;12.30;99.90
23507;DHT22;11930;53.076;18.250;2022-10-31T14:07:16;12.20;99.90
23507;DHT22;11930;53.076;18.250;2022-10-31T14:12:31;12.20;99.90
23507;DHT22;11930;53.076;18.250;2022-10-31T14:22:43;12.20;99.90
23507;DHT22;11930;53.076;18.250;2022-10-31T14:27:51;12.20;99.90
23507;DHT22;11930;53.076;18.250;2022-10-31T14:30:25;12.20;99.90
23507;DHT22;11930;53.076;18.250;2022-10-31T14:32:58;12.20;99.90
23507;DHT22;11930;53.076;18.250;2022-10-31T14:35:30;12.10;99.90
23507;DHT22;11930;53.076;18.250;2022-10-31T14:38:29;12.10;99.90
23507;DHT22;11930;53.076;18.250;2022-10-31T14:41:28;12.10;99.90
23507;DHT22;11930;53.076;18.250;2022-10-31T14:44:24;12.10;99.90
23507;DHT22;11930;53.076;18.250;2022-10-31T14:47:39;12.10;99.90
23507;DHT22;11930;53.076;18.250;2022-10-31T14:52:25;12.10;99.90
23507;DHT22;11930;53.076;18.250;2022-10-31T14:54:57;12.10;99.90
23507;DHT22;11930;53.076;18.250;2022-10-31T14:57:30;12.10;99.90
23507;DHT22;11930;53.076;18.250;2022-10-31T15:00:04;12.10;99.90
23507;DHT22;11930;53.076;18.250;2022-10-31T15:03:02;12.10;99.90
23507;DHT22;11930;53.076;18.250;2022-10-31T15:05:30;12.10;99.90
23507;DHT22;11930;53.076;18.250;2022-10-31T15:07:58;12.10;99.90
23507;DHT22;11930;53.076;18.250;2022-10-31T15:10:32;12.10;99.90
23507;DHT22;11930;53.076;18.250;2022-10-31T15:13:20;12.10;99.90
23507;DHT22;11930;53.076;18.250;2022-10-31T15:15:48;12.00;99.90
23507;DHT22;11930;53.076;18.250;2022-10-31T15:18:17;12.00;99.90
23507;DHT22;11930;53.076;18.250;2022-10-31T15:20:45;12.00;99.90
23507;DHT22;11930;53.076;18.250;2022-10-31T15:23:16;12.00;99.90
23507;DHT22;11930;53.076;18.250;2022-10-31T15:25:46;11.90;99.90
23507;DHT22;11930;53.076;18.250;2022-10-31T15:28:21;11.90;99.90
23507;DHT22;11930;53.076;18.250;2022-10-31T15:30:55;11.90;99.90
23507;DHT22;11930;53.076;18.250;2022-10-31T15:33:27;11.90;99.90
23507;DHT22;11930;53.076;18.250;2022-10-31T15:35:58;11.90;99.90
23507;DHT22;11930;53.076;18.250;2022-10-31T15:38:26;11.90;99.90
23507;DHT22;11930;53.076;18.250;2022-10-31T15:43:24;11.90;99.90
23507;DHT22;11930;53.076;18.250;2022-10-31T15:45:50;11.90;99.90
23507;DHT22;11930;53.076;18.250;2022-10-31T15:48:23;11.90;99.90
23507;DHT22;11930;53.076;18.250;2022-10-31T15:50:59;11.90;99.90
23507;DHT22;11930;53.076;18.250;2022-10-31T15:56:06;11.90;99.90
23507;DHT22;11930;53.076;18.250;2022-10-31T15:58:41;11.90;99.90
23507;DHT22;11930;53.076;18.250;2022-10-31T16:06:27;11.90;99.90
23507;DHT22;11930;53.076;18.250;2022-10-31T16:08:53;11.90;99.90
23507;DHT22;11930;53.076;18.250;2022-10-31T16:11:31;11.90;99.90
23507;DHT22;11930;53.076;18.250;2022-10-31T16:14:15;11.90;99.90
23507;DHT22;11930;53.076;18.250;2022-10-31T16:16:44;11.80;99.90
23507;DHT22;11930;53.076;18.250;2022-10-31T16:21:48;11.80;99.90
23507;DHT22;11930;53.076;18.250;2022-10-31T16:24:25;11.90;99.90
23507;DHT22;11930;53.076;18.250;2022-10-31T16:26:54;11.90;99.90
23507;DHT22;11930;53.076;18.250;2022-10-31T16:29:32;11.80;99.90
23507;DHT22;11930;53.076;18.250;2022-10-31T16:31:58;11.90;99.90
23507;DHT22;11930;53.076;18.250;2022-10-31T16:34:24;11.80;99.90
23507;DHT22;11930;53.076;18.250;2022-10-31T16:36:51;11.80;99.90
23507;DHT22;11930;53.076;18.250;2022-10-31T16:39:17;11.80;99.90
23507;DHT22;11930;53.076;18.250;2022-10-31T16:41:45;11.80;99.90
23507;DHT22;11930;53.076;18.250;2022-10-31T16:46:43;11.80;99.90
23507;DHT22;11930;53.076;18.250;2022-10-31T16:49:10;11.80;99.90
23507;DHT22;11930;53.076;18.250;2022-10-31T16:51:36;11.80;99.90
23507;DHT22;11930;53.076;18.250;2022-10-31T16:54:02;11.80;99.90
23507;DHT22;11930;53.076;18.250;2022-10-31T16:56:30;11.80;99.90
23507;DHT22;11930;53.076;18.250;2022-10-31T16:58:58;11.80;99.90
23507;DHT22;11930;53.076;18.250;2022-10-31T17:01:25;11.80;99.90
23507;DHT22;11930;53.076;18.250;2022-10-31T17:03:52;11.80;99.90
23507;DHT22;11930;53.076;18.250;2022-10-31T17:06:18;11.80;99.90
23507;DHT22;11930;53.076;18.250;2022-10-31T17:08:44;11.80;99.90
23507;DHT22;11930;53.076;18.250;2022-10-31T17:11:17;11.80;99.90
23507;DHT22;11930;53.076;18.250;2022-10-31T17:13:44;11.80;99.90
23507;DHT22;11930;53.076;18.250;2022-10-31T17:16:12;11.80;99.90
23507;DHT22;11930;53.076;18.250;2022-10-31T17:18:40;11.80;99.90
23507;DHT22;11930;53.076;18.250;2022-10-31T17:21:06;11.80;99.90
23507;DHT22;11930;53.076;18.250;2022-10-31T17:23:32;11.80;99.90
23507;DHT22;11930;53.076;18.250;2022-10-31T17:25:59;11.80;99.90
23507;DHT22;11930;53.076;18.250;2022-10-31T17:28:25;11.80;99.90
23507;DHT22;11930;53.076;18.250;2022-10-31T17:30:53;11.80;99.90
23507;DHT22;11930;53.076;18.250;2022-10-31T17:33:20;11.80;99.90
23507;DHT22;11930;53.076;18.250;2022-10-31T17:35:46;11.80;99.90
23507;DHT22;11930;53.076;18.250;2022-10-31T17:38:12;11.80;99.90
23507;DHT22;11930;53.076;18.250;2022-10-31T17:40:39;11.80;99.90
23507;DHT22;11930;53.076;18.250;2022-10-31T17:43:08;11.80;99.90
23507;DHT22;11930;53.076;18.250;2022-10-31T17:45:38;11.80;99.90
23507;DHT22;11930;53.076;18.250;2022-10-31T17:48:04;11.80;99.90
23507;DHT22;11930;53.076;18.250;2022-10-31T17:50:30;11.80;99.90
23507;DHT22;11930;53.076;18.250;2022-10-31T17:52:57;11.80;99.90
23507;DHT22;11930;53.076;18.250;2022-10-31T17:55:23;11.80;99.90
23507;DHT22;11930;53.076;18.250;2022-10-31T17:57:49;11.90;99.90
23507;DHT22;11930;53.076;18.250;2022-10-31T18:00:18;11.80;99.90
23507;DHT22;11930;53.076;18.250;2022-10-31T18:02:46;11.80;99.90
23507;DHT22;11930;53.076;18.250;2022-10-31T18:05:12;11.80;99.90
23507;DHT22;11930;53.076;18.250;2022-10-31T18:07:38;11.80;99.90
23507;DHT22;11930;53.076;18.250;2022-10-31T18:10:05;11.80;99.90
23507;DHT22;11930;53.076;18.250;2022-10-31T18:12:33;11.80;99.90
23507;DHT22;11930;53.076;18.250;2022-10-31T18:14:59;11.80;99.90
23507;DHT22;11930;53.076;18.250;2022-10-31T18:17:26;11.80;99.90
23507;DHT22;11930;53.076;18.250;2022-10-31T18:19:52;11.80;99.90
23507;DHT22;11930;53.076;18.250;2022-10-31T18:22:18;11.80;99.90
23507;DHT22;11930;53.076;18.250;2022-10-31T18:24:44;11.80;99.90
23507;DHT22;11930;53.076;18.250;2022-10-31T18:27:10;11.80;99.90
23507;DHT22;11930;53.076;18.250;2022-10-31T18:29:36;11.80;99.90
23507;DHT22;11930;53.076;18.250;2022-10-31T18:32:02;11.80;99.90
23507;DHT22;11930;53.076;18.250;2022-10-31T18:34:28;11.80;99.90
23507;DHT22;11930;53.076;18.250;2022-10-31T18:36:55;11.80;99.90
23507;DHT22;11930;53.076;18.250;2022-10-31T18:39:20;11.80;99.90
23507;DHT22;11930;53.076;18.250;2022-10-31T18:41:46;11.80;99.90
23507;DHT22;11930;53.076;18.250;2022-10-31T18:44:12;11.80;99.90
23507;DHT22;11930;53.076;18.250;2022-10-31T18:46:38;11.80;99.90